Time;durP1;ratioP1;P1;durP2;ratioP2;P2;SDS_P1;SDS_P2;PMS_P1;PMS_P2;Temp;Humidity;BMP_temperature;BMP_pressure;BME280_temperature;BME280_humidity;BME280_pressure;Samples;Min_cycle;Max_cycle;Signal;HPM_P1;HPM_P2
2023/06/06 00:01:15;;;;;;;2.50;1.83;;;14.70;99.90;;;;;;5066574;28;20430;-70
2023/06/06 00:03:41;;;;;;;3.00;1.33;;;14.60;99.90;;;;;;5050882;28;20428;-70
2023/06/06 00:06:07;;;;;;;5.77;1.63;;;14.60;99.90;;;;;;5068504;28;20181;-71
2023/06/06 00:08:33;;;;;;;6.50;2.13;;;14.70;99.90;;;;;;5071368;28;20461;-71
2023/06/06 00:10:59;;;;;;;3.53;1.70;;;14.70;99.90;;;;;;5066010;28;20615;-70
2023/06/06 00:13:27;;;;;;;4.53;1.87;;;14.60;99.90;;;;;;5051074;28;20650;-70
2023/06/06 00:15:54;;;;;;;4.53;2.30;;;14.50;99.90;;;;;;5063847;28;20769;-70
2023/06/06 00:18:19;;;;;;;3.80;2.37;;;14.50;99.90;;;;;;5052932;28;20527;-70
2023/06/06 00:20:46;;;;;;;2.33;1.83;;;14.40;99.90;;;;;;5063327;28;20507;-70
2023/06/06 00:23:12;;;;;;;3.70;2.00;;;14.30;99.90;;;;;;5062096;28;20181;-70
2023/06/06 00:25:38;;;;;;;3.13;2.10;;;14.30;99.90;;;;;;5052766;28;20475;-70
2023/06/06 00:28:04;;;;;;;3.40;1.73;;;14.20;99.90;;;;;;5051258;28;20440;-70
2023/06/06 00:30:29;;;;;;;4.37;1.93;;;14.20;99.90;;;;;;5063070;28;20185;-70
2023/06/06 00:32:55;;;;;;;8.30;2.20;;;14.20;99.90;;;;;;5070431;28;20213;-70
2023/06/06 00:35:21;;;;;;;3.03;1.70;;;14.10;99.90;;;;;;5064819;28;20255;-70
2023/06/06 00:37:46;;;;;;;3.97;1.90;;;14.10;99.90;;;;;;5050619;28;20196;-70
2023/06/06 00:40:12;;;;;;;5.90;2.40;;;14.00;99.90;;;;;;5050115;28;20194;-70
2023/06/06 00:42:38;;;;;;;3.67;2.00;;;13.90;99.90;;;;;;5050317;28;20203;-70
2023/06/06 00:45:04;;;;;;;5.27;2.40;;;13.80;99.90;;;;;;5063823;28;20889;-70
2023/06/06 00:47:30;;;;;;;5.90;2.50;;;13.70;99.90;;;;;;5061914;28;20632;-70
2023/06/06 00:49:56;;;;;;;4.70;2.60;;;13.70;99.90;;;;;;5065762;28;20485;-71
2023/06/06 00:52:24;;;;;;;5.47;2.90;;;13.60;99.90;;;;;;5061213;28;20554;-70
2023/06/06 00:54:50;;;;;;;3.40;2.00;;;13.60;99.90;;;;;;5051930;28;20495;-71
2023/06/06 00:57:18;;;;;;;4.00;2.57;;;13.50;99.90;;;;;;5062162;28;20757;-71
2023/06/06 00:59:45;;;;;;;3.80;2.13;;;13.50;99.90;;;;;;5051480;28;20500;-70
2023/06/06 01:02:14;;;;;;;4.27;2.40;;;13.50;99.90;;;;;;5049281;28;20443;-71
2023/06/06 01:04:39;;;;;;;3.90;2.47;;;13.40;99.90;;;;;;5055486;28;20419;-70
2023/06/06 01:07:06;;;;;;;5.67;2.50;;;13.40;99.90;;;;;;5058151;28;20408;-70
2023/06/06 01:09:34;;;;;;;5.37;2.43;;;13.30;99.90;;;;;;5063660;28;20173;-70
2023/06/06 01:12:08;;;;;;;4.23;2.33;;;13.20;99.90;;;;;;5050210;28;20412;-70
2023/06/06 01:14:47;;;;;;;3.30;1.73;;;13.20;99.90;;;;;;5050109;28;20459;-71
2023/06/06 01:17:17;;;;;;;6.10;2.53;;;13.10;99.90;;;;;;5050461;28;20427;-70
2023/06/06 01:19:43;;;;;;;5.13;2.60;;;13.10;99.90;;;;;;5060038;28;20411;-70
2023/06/06 01:22:12;;;;;;;5.10;2.90;;;13.10;99.90;;;;;;5060502;28;20421;-70
2023/06/06 01:24:41;;;;;;;3.90;2.00;;;13.00;99.90;;;;;;5066281;28;20510;-70
2023/06/06 01:27:07;;;;;;;10.63;2.50;;;13.00;99.90;;;;;;5067072;28;20422;-70
2023/06/06 01:29:32;;;;;;;4.20;2.30;;;12.90;99.90;;;;;;5054458;28;20510;-70
2023/06/06 01:32:12;;;;;;;3.43;1.80;;;13.00;99.90;;;;;;5069457;28;20185;-70
2023/06/06 01:35:03;;;;;;;4.30;2.27;;;12.90;99.90;;;;;;5068614;28;20873;-70
2023/06/06 01:37:49;;;;;;;3.73;2.57;;;12.80;99.90;;;;;;5060749;28;20972;-70
2023/06/06 01:40:18;;;;;;;4.03;2.30;;;12.80;99.90;;;;;;5054132;28;20447;-70
2023/06/06 01:42:47;;;;;;;4.43;2.40;;;12.70;99.90;;;;;;5057884;28;20417;-70
2023/06/06 01:45:15;;;;;;;3.60;1.90;;;12.70;99.90;;;;;;5062959;28;20459;-70
2023/06/06 01:47:43;;;;;;;3.67;2.13;;;12.60;99.90;;;;;;5062611;28;20442;-70
2023/06/06 01:50:09;;;;;;;2.97;1.40;;;12.60;99.90;;;;;;5063071;28;20420;-70
2023/06/06 01:52:36;;;;;;;4.73;2.13;;;12.60;99.90;;;;;;5060867;28;20445;-70
2023/06/06 01:55:03;;;;;;;2.70;1.47;;;12.60;99.90;;;;;;5068382;28;20745;-70
2023/06/06 01:57:29;;;;;;;3.80;2.03;;;12.50;99.90;;;;;;5056875;28;20789;-70
2023/06/06 01:59:55;;;;;;;3.00;1.80;;;12.50;99.90;;;;;;5055948;28;20888;-71
2023/06/06 02:02:21;;;;;;;3.70;1.90;;;12.50;99.90;;;;;;5056168;28;20481;-70
2023/06/06 02:04:48;;;;;;;4.70;2.00;;;12.40;99.90;;;;;;5056609;28;20177;-70
2023/06/06 02:07:15;;;;;;;2.53;1.53;;;12.40;99.90;;;;;;5056224;28;20178;-70
2023/06/06 02:09:42;;;;;;;6.00;2.60;;;12.40;99.90;;;;;;5049533;28;20874;-70
2023/06/06 02:12:08;;;;;;;4.07;1.73;;;12.40;99.90;;;;;;5062560;28;20408;-70
2023/06/06 02:14:34;;;;;;;4.57;2.03;;;12.40;99.90;;;;;;5066647;28;20473;-70
2023/06/06 02:17:00;;;;;;;3.97;1.97;;;12.40;99.90;;;;;;5070523;28;20842;-70
2023/06/06 02:19:26;;;;;;;5.50;2.20;;;12.40;99.90;;;;;;5069955;28;20173;-70
2023/06/06 02:21:52;;;;;;;3.37;2.20;;;12.40;99.90;;;;;;5067021;28;20741;-70
2023/06/06 02:24:18;;;;;;;3.10;1.70;;;12.30;99.90;;;;;;5060191;28;20547;-70
2023/06/06 02:26:44;;;;;;;4.33;2.13;;;12.20;99.90;;;;;;5066551;28;20192;-70
2023/06/06 02:29:10;;;;;;;3.47;2.20;;;12.20;99.90;;;;;;5066830;28;20186;-70
2023/06/06 02:31:36;;;;;;;3.80;2.60;;;12.20;99.90;;;;;;5072624;28;20458;-70
2023/06/06 02:34:02;;;;;;;4.93;1.87;;;12.10;99.90;;;;;;5064778;28;20577;-70
2023/06/06 02:36:29;;;;;;;4.33;2.53;;;12.10;99.90;;;;;;5052629;28;20436;-70
2023/06/06 02:38:55;;;;;;;3.57;1.97;;;12.00;99.90;;;;;;5052695;28;20416;-70
2023/06/06 02:41:21;;;;;;;3.73;1.67;;;12.00;99.90;;;;;;5053018;28;21319;-70
2023/06/06 02:43:47;;;;;;;3.70;2.17;;;12.00;99.90;;;;;;5056044;28;20467;-70
2023/06/06 02:46:12;;;;;;;2.90;1.73;;;11.90;99.90;;;;;;5052687;28;20858;-70
2023/06/06 02:48:38;;;;;;;3.90;1.90;;;11.90;99.90;;;;;;5060979;28;20191;-70
2023/06/06 02:51:04;;;;;;;3.70;2.10;;;11.80;99.90;;;;;;5067587;28;20186;-70
2023/06/06 02:53:32;;;;;;;2.70;1.63;;;11.80;99.90;;;;;;5062450;28;20685;-70
2023/06/06 02:55:58;;;;;;;4.17;2.40;;;11.80;99.90;;;;;;5052392;28;20666;-70
2023/06/06 02:58:29;;;;;;;6.57;2.37;;;11.70;99.90;;;;;;5052471;28;20556;-70
2023/06/06 03:00:56;;;;;;;3.53;1.73;;;11.80;99.90;;;;;;5065907;28;20173;-70
2023/06/06 03:03:23;;;;;;;11.33;2.00;;;11.70;99.90;;;;;;5059945;28;20415;-70
2023/06/06 03:05:51;;;;;;;3.93;2.07;;;11.70;99.90;;;;;;5069833;28;20982;-70
2023/06/06 03:08:20;;;;;;;4.07;2.53;;;11.60;99.90;;;;;;5052545;28;20761;-70
2023/06/06 03:10:47;;;;;;;4.80;2.30;;;11.60;99.90;;;;;;5054926;28;20488;-70
2023/06/06 03:13:13;;;;;;;3.67;1.90;;;11.60;99.90;;;;;;5061880;28;20467;-70
2023/06/06 03:15:44;;;;;;;3.70;2.00;;;11.60;99.90;;;;;;5065763;28;20421;-70
2023/06/06 03:18:11;;;;;;;6.53;2.60;;;11.50;99.90;;;;;;5052959;28;20257;-70
2023/06/06 03:20:41;;;;;;;5.87;2.03;;;11.60;99.90;;;;;;5069534;28;20423;-70
2023/06/06 03:23:08;;;;;;;7.37;1.47;;;11.50;99.90;;;;;;5061898;28;20427;-70
2023/06/06 03:25:33;;;;;;;5.23;2.67;;;11.60;99.90;;;;;;5067100;28;20417;-70
2023/06/06 03:28:02;;;;;;;3.20;1.90;;;11.50;99.90;;;;;;5062753;28;20446;-70
2023/06/06 03:30:28;;;;;;;2.83;1.60;;;11.50;99.90;;;;;;5065678;28;20565;-70
2023/06/06 03:32:55;;;;;;;5.10;2.50;;;11.50;99.90;;;;;;5063580;28;20498;-70
2023/06/06 03:35:21;;;;;;;2.00;1.40;;;11.50;99.90;;;;;;5070317;28;20182;-70
2023/06/06 03:37:47;;;;;;;3.00;1.93;;;11.50;99.90;;;;;;5060011;28;20448;-70
2023/06/06 03:40:13;;;;;;;3.97;2.23;;;11.50;99.90;;;;;;5064932;28;20444;-70
2023/06/06 03:42:38;;;;;;;2.77;1.60;;;11.40;99.90;;;;;;5051623;28;20265;-70
2023/06/06 03:45:05;;;;;;;3.53;1.90;;;11.40;99.90;;;;;;5051710;28;20173;-70
2023/06/06 03:47:31;;;;;;;3.13;2.00;;;11.40;99.90;;;;;;5063633;28;20177;-70
2023/06/06 03:49:56;;;;;;;7.27;1.80;;;11.40;99.90;;;;;;5066357;28;20416;-70
2023/06/06 03:52:23;;;;;;;4.60;2.00;;;11.40;99.90;;;;;;5062589;28;20197;-72
2023/06/06 03:54:49;;;;;;;6.43;2.17;;;11.50;99.90;;;;;;5057635;28;20673;-72
2023/06/06 03:57:16;;;;;;;2.93;1.43;;;11.40;99.90;;;;;;5070048;28;20610;-71
2023/06/06 03:59:42;;;;;;;5.97;2.70;;;11.40;99.90;;;;;;5052611;28;20501;-72
2023/06/06 04:02:07;;;;;;;3.13;1.97;;;11.40;99.90;;;;;;5051481;28;20458;-72
2023/06/06 04:04:33;;;;;;;2.90;1.83;;;11.40;99.90;;;;;;5063810;28;20214;-72
2023/06/06 04:06:59;;;;;;;2.50;1.20;;;11.40;99.90;;;;;;5071082;28;20200;-72
2023/06/06 04:09:24;;;;;;;6.77;2.70;;;11.40;99.90;;;;;;5057358;28;20640;-72
2023/06/06 04:11:50;;;;;;;13.17;6.20;;;11.40;99.90;;;;;;5059698;28;20182;-71
2023/06/06 04:14:16;;;;;;;15.50;5.53;;;11.50;99.90;;;;;;5058140;28;20216;-71
2023/06/06 04:16:41;;;;;;;5.73;2.60;;;11.60;99.90;;;;;;5060068;28;20253;-71
2023/06/06 04:19:07;;;;;;;3.13;1.57;;;11.60;99.90;;;;;;5069199;28;20188;-71
2023/06/06 04:21:33;;;;;;;2.53;1.57;;;11.60;99.90;;;;;;5063997;28;20246;-71
2023/06/06 04:24:00;;;;;;;4.63;2.20;;;11.60;99.90;;;;;;5066432;28;20458;-71
2023/06/06 04:26:31;;;;;;;3.20;1.70;;;11.60;99.90;;;;;;5051370;28;20645;-71
2023/06/06 04:29:00;;;;;;;3.53;2.20;;;11.60;99.90;;;;;;5051136;28;20557;-71
2023/06/06 04:31:28;;;;;;;2.87;1.67;;;11.60;99.90;;;;;;5069806;28;20924;-72
2023/06/06 04:33:55;;;;;;;3.70;1.93;;;11.60;99.90;;;;;;5064209;28;20464;-72
2023/06/06 04:36:24;;;;;;;4.30;1.90;;;11.80;99.90;;;;;;5063777;28;20419;-72
2023/06/06 04:38:51;;;;;;;3.73;2.00;;;11.70;99.90;;;;;;5050639;28;20424;-71
2023/06/06 04:41:17;;;;;;;6.87;2.33;;;11.70;99.90;;;;;;5064718;28;20506;-72
2023/06/06 04:43:49;;;;;;;5.93;2.60;;;11.80;99.90;;;;;;5064157;28;20427;-72
2023/06/06 04:46:21;;;;;;;5.27;2.33;;;12.00;99.90;;;;;;5052169;28;20412;-71
2023/06/06 04:48:53;;;;;;;4.50;2.80;;;11.90;99.90;;;;;;5062441;28;20454;-71
2023/06/06 04:51:29;;;;;;;4.73;2.03;;;12.00;99.90;;;;;;5055058;28;20408;-72
2023/06/06 04:54:03;;;;;;;3.70;1.90;;;12.00;99.90;;;;;;5054807;28;20952;-72
2023/06/06 04:56:29;;;;;;;3.90;2.27;;;12.10;99.90;;;;;;5068110;28;20415;-71
2023/06/06 04:58:56;;;;;;;3.83;2.20;;;12.10;99.90;;;;;;5065706;28;20871;-71
2023/06/06 05:01:23;;;;;;;6.23;2.03;;;12.20;99.90;;;;;;5076178;28;20515;-72
2023/06/06 05:03:51;;;;;;;3.30;2.00;;;12.30;99.90;;;;;;5067391;28;20447;-72
2023/06/06 05:06:17;;;;;;;3.40;2.20;;;12.30;99.90;;;;;;5080152;28;20451;-71
2023/06/06 05:08:46;;;;;;;6.70;2.40;;;12.40;99.90;;;;;;5082504;28;20454;-71
2023/06/06 05:11:12;;;;;;;3.00;2.10;;;12.50;99.90;;;;;;5079959;28;20185;-71
2023/06/06 05:13:38;;;;;;;3.27;2.10;;;12.60;99.90;;;;;;5065336;28;20465;-71
2023/06/06 05:16:03;;;;;;;5.33;2.30;;;12.60;99.90;;;;;;5083893;28;20908;-72
2023/06/06 05:18:30;;;;;;;2.97;2.00;;;12.70;99.90;;;;;;5079041;28;20174;-71
2023/06/06 05:21:02;;;;;;;6.00;2.20;;;12.70;99.90;;;;;;5075480;28;20176;-71
2023/06/06 05:23:31;;;;;;;4.43;2.40;;;12.70;99.90;;;;;;5068748;28;20968;-71
2023/06/06 05:25:58;;;;;;;3.67;2.07;;;12.70;99.90;;;;;;5070090;28;21035;-71
2023/06/06 05:28:32;;;;;;;7.70;3.43;;;12.80;99.90;;;;;;5081606;28;20418;-72
2023/06/06 05:30:59;;;;;;;3.17;2.20;;;12.90;99.90;;;;;;5066587;28;20407;-71
2023/06/06 05:33:25;;;;;;;5.83;3.00;;;13.10;99.90;;;;;;5082563;28;20824;-71
2023/06/06 05:35:52;;;;;;;4.87;2.10;;;13.20;99.90;;;;;;5068183;28;20501;-71
2023/06/06 05:38:19;;;;;;;3.70;2.40;;;13.30;99.90;;;;;;5074327;28;20438;-71
2023/06/06 05:40:45;;;;;;;3.57;2.33;;;13.40;99.90;;;;;;5078941;28;20442;-71
2023/06/06 05:43:10;;;;;;;6.10;2.30;;;13.60;99.90;;;;;;5087547;28;20816;-71
2023/06/06 05:45:36;;;;;;;6.03;2.50;;;13.70;99.90;;;;;;5079120;28;20188;-71
2023/06/06 05:48:03;;;;;;;6.10;2.57;;;13.80;99.90;;;;;;5062369;28;20565;-71
2023/06/06 05:50:29;;;;;;;8.10;2.97;;;13.90;99.90;;;;;;5080081;28;20177;-71
2023/06/06 05:52:55;;;;;;;9.83;2.83;;;14.00;99.90;;;;;;5074125;28;20470;-72
2023/06/06 05:55:31;;;;;;;7.60;3.20;;;14.10;99.90;;;;;;5082963;28;20414;-71
2023/06/06 05:57:58;;;;;;;6.43;3.63;;;14.20;99.90;;;;;;5080755;28;20406;-72
2023/06/06 06:00:29;;;;;;;4.27;2.80;;;14.40;99.90;;;;;;5094469;28;20410;-71
2023/06/06 06:02:58;;;;;;;6.80;2.70;;;14.40;99.90;;;;;;5093610;28;20450;-71
2023/06/06 06:05:28;;;;;;;3.67;2.30;;;14.50;99.90;;;;;;5081543;28;20466;-71
2023/06/06 06:08:00;;;;;;;5.90;2.80;;;14.50;99.90;;;;;;5067770;28;20420;-71
2023/06/06 06:10:30;;;;;;;5.17;2.40;;;14.60;99.90;;;;;;5054566;28;20474;-71
2023/06/06 06:12:56;;;;;;;8.30;1.90;;;14.70;99.90;;;;;;5067484;28;20494;-71
2023/06/06 06:15:22;;;;;;;4.20;2.33;;;14.90;99.90;;;;;;5079912;28;20454;-71
2023/06/06 06:17:48;;;;;;;4.57;2.60;;;15.00;99.90;;;;;;5094117;28;20625;-71
2023/06/06 06:20:16;;;;;;;6.20;2.70;;;15.00;99.90;;;;;;5075766;28;20227;-71
2023/06/06 06:22:43;;;;;;;4.60;1.97;;;15.10;99.90;;;;;;5086487;28;20219;-71
2023/06/06 06:25:12;;;;;;;4.73;2.23;;;15.20;99.90;;;;;;5085875;28;20797;-71
2023/06/06 06:27:41;;;;;;;5.80;2.83;;;15.30;99.90;;;;;;5093985;28;20986;-71
2023/06/06 06:30:09;;;;;;;5.13;2.57;;;15.40;99.90;;;;;;5072353;28;20419;-71
2023/06/06 06:32:36;;;;;;;3.50;1.87;;;15.40;99.90;;;;;;5081504;28;20418;-71
2023/06/06 06:35:05;;;;;;;4.20;2.23;;;15.50;99.90;;;;;;5093083;28;20429;-71
2023/06/06 06:37:32;;;;;;;3.53;2.27;;;15.60;99.90;;;;;;5093613;28;20415;-69
2023/06/06 06:39:58;;;;;;;5.10;2.47;;;15.70;99.90;;;;;;5074092;28;20807;-69
2023/06/06 06:42:25;;;;;;;2.90;2.00;;;15.80;99.90;;;;;;5093341;28;20419;-69
2023/06/06 06:44:51;;;;;;;7.57;2.47;;;15.90;99.90;;;;;;5093630;28;20497;-69
2023/06/06 06:47:17;;;;;;;4.30;2.57;;;15.80;99.90;;;;;;5093485;28;20580;-69
2023/06/06 06:49:42;;;;;;;4.30;2.60;;;15.90;99.90;;;;;;5093038;28;20216;-69
2023/06/06 06:52:11;;;;;;;4.93;2.10;;;15.90;99.90;;;;;;5092059;28;20287;-69
2023/06/06 06:54:48;;;;;;;5.50;2.00;;;16.00;99.90;;;;;;5076894;28;20211;-69
2023/06/06 06:57:14;;;;;;;3.90;1.70;;;16.10;99.90;;;;;;5093066;28;20474;-69
2023/06/06 06:59:41;;;;;;;3.57;2.30;;;16.20;99.90;;;;;;5079547;28;20505;-70
2023/06/06 07:02:07;;;;;;;6.30;2.10;;;16.40;99.90;;;;;;5091694;28;20241;-70
2023/06/06 07:04:33;;;;;;;2.80;1.50;;;16.60;99.90;;;;;;5079326;28;20436;-70
2023/06/06 07:06:58;;;;;;;2.00;1.20;;;16.90;99.90;;;;;;5084148;28;20418;-70
2023/06/06 07:09:24;;;;;;;3.13;1.77;;;17.20;98.70;;;;;;5092142;28;20329;-70
2023/06/06 07:11:50;;;;;;;1.97;1.30;;;17.40;98.10;;;;;;5062907;28;20181;-70
2023/06/06 07:14:15;;;;;;;3.67;1.67;;;17.40;97.90;;;;;;5090709;28;20915;-70
2023/06/06 07:16:43;;;;;;;3.07;1.67;;;17.60;98.00;;;;;;5092326;28;20184;-70
2023/06/06 07:19:08;;;;;;;5.97;2.23;;;17.80;96.60;;;;;;5065484;28;20264;-71
2023/06/06 07:21:34;;;;;;;3.23;1.67;;;18.00;96.30;;;;;;5078712;28;20506;-70
2023/06/06 07:24:00;;;;;;;2.10;1.30;;;18.30;95.70;;;;;;5082896;28;20689;-70
2023/06/06 07:26:26;;;;;;;3.73;2.20;;;18.40;95.40;;;;;;5081364;28;20177;-70
2023/06/06 07:28:52;;;;;;;2.57;1.57;;;18.60;94.70;;;;;;5063882;28;20452;-70
2023/06/06 07:31:17;;;;;;;3.30;1.97;;;19.00;93.20;;;;;;5071916;28;20533;-71
2023/06/06 07:33:44;;;;;;;3.63;1.40;;;19.30;91.10;;;;;;5089886;28;20232;-71
2023/06/06 07:36:10;;;;;;;3.43;1.50;;;19.40;90.60;;;;;;5092557;28;20185;-71
2023/06/06 07:38:36;;;;;;;2.03;1.20;;;19.80;90.00;;;;;;5082375;28;20419;-70
2023/06/06 07:41:02;;;;;;;2.23;1.27;;;20.50;87.60;;;;;;5073776;28;20178;-69
2023/06/06 07:43:28;;;;;;;4.80;1.60;;;21.10;85.50;;;;;;5091186;28;20217;-69
2023/06/06 07:45:53;;;;;;;2.43;1.20;;;21.50;83.00;;;;;;5091938;28;20422;-69
2023/06/06 07:48:19;;;;;;;2.63;1.80;;;21.30;82.10;;;;;;5091752;28;20241;-69
2023/06/06 07:50:45;;;;;;;5.30;1.97;;;22.10;79.10;;;;;;5092005;28;20214;-69
2023/06/06 07:53:11;;;;;;;4.20;1.90;;;22.20;79.80;;;;;;5074601;28;20207;-69
2023/06/06 07:55:37;;;;;;;2.60;1.50;;;23.20;74.80;;;;;;5082197;28;20187;-69
2023/06/06 07:58:10;;;;;;;3.70;1.90;;;23.50;73.50;;;;;;5083757;28;20180;-69
2023/06/06 08:00:36;;;;;;;2.20;1.30;;;23.90;71.60;;;;;;5083180;28;20183;-69
2023/06/06 08:03:01;;;;;;;2.00;1.20;;;23.10;73.40;;;;;;5064438;28;20183;-69
2023/06/06 08:05:27;;;;;;;3.17;1.52;;;23.70;72.50;;;;;;5091625;28;20172;-69
2023/06/06 08:07:53;;;;;;;2.90;1.27;;;24.10;70.80;;;;;;5064937;28;20676;-69
2023/06/06 08:10:19;;;;;;;4.63;1.80;;;24.20;68.10;;;;;;5075206;28;20264;-69
2023/06/06 08:12:45;;;;;;;2.17;1.15;;;24.80;64.90;;;;;;5073366;28;20176;-69
2023/06/06 08:15:11;;;;;;;2.67;1.20;;;24.60;64.70;;;;;;5090279;28;20213;-69
2023/06/06 08:17:37;;;;;;;3.63;1.52;;;24.60;63.20;;;;;;5078269;28;20179;-69
2023/06/06 08:20:06;;;;;;;2.40;1.38;;;24.80;63.90;;;;;;5074895;28;20180;-70
2023/06/06 08:22:33;;;;;;;4.55;1.50;;;24.80;63.20;;;;;;5075773;28;20522;-69
2023/06/06 08:25:03;;;;;;;2.42;1.15;;;24.60;63.30;;;;;;5082862;28;20301;-69
2023/06/06 08:27:29;;;;;;;2.70;1.30;;;24.20;64.30;;;;;;5091011;28;20565;-69
2023/06/06 08:29:55;;;;;;;2.95;1.17;;;25.00;62.30;;;;;;5070808;28;20187;-69
2023/06/06 08:32:20;;;;;;;2.13;1.20;;;24.60;61.90;;;;;;5078607;28;20253;-70
2023/06/06 08:34:46;;;;;;;4.05;1.48;;;24.60;63.00;;;;;;5077246;28;20639;-69
2023/06/06 08:37:12;;;;;;;3.92;1.95;;;24.40;62.70;;;;;;5091219;28;20246;-69
2023/06/06 08:39:38;;;;;;;2.88;1.65;;;24.80;62.20;;;;;;5087773;28;20183;-69
2023/06/06 08:42:09;;;;;;;3.50;1.73;;;24.70;61.20;;;;;;5076191;28;20259;-70
2023/06/06 08:44:35;;;;;;;5.15;1.98;;;24.90;61.40;;;;;;5077201;28;20176;-69
2023/06/06 08:47:02;;;;;;;2.95;1.67;;;24.80;62.50;;;;;;5090693;28;20190;-69
2023/06/06 08:49:30;;;;;;;3.55;1.88;;;25.10;60.70;;;;;;5077020;28;20645;-69
2023/06/06 08:51:58;;;;;;;2.58;1.55;;;24.70;61.90;;;;;;5090384;28;20284;-70
2023/06/06 08:54:25;;;;;;;5.18;1.73;;;24.50;60.80;;;;;;5073730;28;20224;-70
2023/06/06 08:56:51;;;;;;;2.95;1.58;;;24.20;62.70;;;;;;5070601;28;20173;-70
2023/06/06 08:59:17;;;;;;;3.65;1.90;;;24.00;64.00;;;;;;5056102;28;20178;-69
2023/06/06 09:01:44;;;;;;;3.15;1.45;;;24.20;63.40;;;;;;5070939;28;20208;-69
2023/06/06 09:04:13;;;;;;;7.43;1.58;;;23.90;62.90;;;;;;5071503;28;20645;-70
2023/06/06 09:06:43;;;;;;;5.13;1.98;;;24.00;65.60;;;;;;5079948;28;20180;-70
2023/06/06 09:09:09;;;;;;;2.38;1.40;;;24.30;62.90;;;;;;5071248;28;20183;-70
2023/06/06 09:11:36;;;;;;;5.88;2.13;;;24.40;62.10;;;;;;5070740;28;20180;-68
2023/06/06 09:14:03;;;;;;;5.13;1.77;;;24.20;63.40;;;;;;5086853;28;20235;-69
2023/06/06 09:16:29;;;;;;;3.42;1.70;;;24.10;62.50;;;;;;5091589;28;20191;-68
2023/06/06 09:18:58;;;;;;;4.15;2.15;;;24.20;64.10;;;;;;5074039;28;20177;-68
2023/06/06 09:21:33;;;;;;;5.45;2.10;;;24.10;62.70;;;;;;5079031;28;20230;-68
2023/06/06 09:24:00;;;;;;;6.63;2.17;;;24.50;62.90;;;;;;5083523;28;20203;-69
2023/06/06 09:26:27;;;;;;;2.28;1.30;;;24.30;64.30;;;;;;5094259;28;20179;-68
2023/06/06 09:28:55;;;;;;;3.83;1.65;;;24.50;62.10;;;;;;5084527;28;20177;-69
2023/06/06 09:31:34;;;;;;;3.05;1.52;;;25.00;59.80;;;;;;5075459;28;20179;-69
2023/06/06 09:34:00;;;;;;;2.97;1.90;;;24.90;60.40;;;;;;5095179;28;20562;-68
2023/06/06 09:36:27;;;;;;;4.63;2.10;;;24.30;62.00;;;;;;5095329;28;20176;-69
2023/06/06 09:38:55;;;;;;;3.05;1.90;;;24.90;60.70;;;;;;5094606;28;20183;-68
2023/06/06 09:41:21;;;;;;;5.30;2.38;;;25.10;60.80;;;;;;5092656;28;20187;-69
2023/06/06 09:43:47;;;;;;;5.88;2.65;;;24.70;61.70;;;;;;5094279;28;20183;-69
2023/06/06 09:46:17;;;;;;;4.35;1.67;;;24.40;65.70;;;;;;5095612;28;20187;-69
2023/06/06 09:48:58;;;;;;;3.80;1.70;;;24.50;64.50;;;;;;5095068;28;20274;-69
2023/06/06 09:51:25;;;;;;;3.42;1.92;;;24.40;63.60;;;;;;5095429;28;20644;-69
2023/06/06 09:53:51;;;;;;;7.18;2.47;;;24.70;63.00;;;;;;5086196;28;20213;-68
2023/06/06 09:56:23;;;;;;;3.13;1.80;;;24.50;61.90;;;;;;5078716;28;20180;-68
2023/06/06 09:58:56;;;;;;;3.35;2.05;;;25.00;60.80;;;;;;5094323;28;20172;-69
2023/06/06 10:01:32;;;;;;;4.35;1.63;;;24.90;65.80;;;;;;5081065;28;20652;-69
2023/06/06 10:03:58;;;;;;;5.93;2.42;;;25.00;62.10;;;;;;5090689;28;20198;-69
2023/06/06 10:06:33;;;;;;;4.78;2.00;;;24.90;60.30;;;;;;5094786;28;20188;-68
2023/06/06 10:09:00;;;;;;;5.07;2.05;;;25.00;60.00;;;;;;5094176;28;20183;-69
2023/06/06 10:11:27;;;;;;;4.32;2.05;;;25.20;60.40;;;;;;5094764;28;20229;-69
2023/06/06 10:13:54;;;;;;;5.35;2.25;;;24.60;62.40;;;;;;5092444;28;20203;-69
2023/06/06 10:16:20;;;;;;;5.93;2.17;;;24.90;59.50;;;;;;5083088;28;20175;-69
2023/06/06 10:18:47;;;;;;;4.55;1.70;;;25.20;57.60;;;;;;5089021;28;20219;-69
2023/06/06 10:21:17;;;;;;;3.55;1.75;;;25.10;57.50;;;;;;5081382;28;20204;-68
2023/06/06 10:23:43;;;;;;;5.73;1.77;;;24.60;59.00;;;;;;5073899;28;20188;-67
2023/06/06 10:26:26;;;;;;;4.60;1.70;;;24.30;59.70;;;;;;5082890;28;20676;-67
2023/06/06 10:29:07;;;;;;;3.20;1.93;;;24.50;59.80;;;;;;5080039;28;20189;-65
2023/06/06 10:31:54;;;;;;;3.37;1.77;;;24.30;59.40;;;;;;5067482;28;20418;-68
2023/06/06 10:34:24;;;;;;;2.93;1.70;;;24.10;60.90;;;;;;5064778;28;20860;-68
2023/06/06 10:36:51;;;;;;;7.20;2.20;;;24.10;62.00;;;;;;5067414;28;20419;-68
2023/06/06 10:39:24;;;;;;;4.70;2.17;;;23.80;61.10;;;;;;5066731;28;20432;-66
2023/06/06 10:41:52;;;;;;;3.63;2.03;;;24.10;60.50;;;;;;5073407;28;20744;-67
2023/06/06 10:44:43;;;;;;;6.67;1.80;;;24.30;60.30;;;;;;5069982;28;20434;-69
2023/06/06 10:47:26;;;;;;;3.73;2.00;;;24.40;59.50;;;;;;5071207;28;20415;-68
2023/06/06 10:50:13;;;;;;;3.33;1.40;;;24.50;58.20;;;;;;5075242;28;20467;-69
2023/06/06 10:53:15;;;;;;;3.50;1.97;;;24.40;59.90;;;;;;5071729;28;20533;-68
2023/06/06 10:55:44;;;;;;;3.10;1.83;;;24.30;58.70;;;;;;5065793;28;20426;-68
2023/06/06 10:58:27;;;;;;;3.70;1.97;;;24.00;59.60;;;;;;5065010;28;20923;-69
2023/06/06 11:01:01;;;;;;;5.07;2.00;;;23.50;59.40;;;;;;5061419;28;20410;-69
2023/06/06 11:03:40;;;;;;;3.03;1.77;;;23.40;61.20;;;;;;5057286;28;20446;-69
2023/06/06 11:06:12;;;;;;;6.23;1.83;;;23.40;57.30;;;;;;5062619;28;20403;-69
2023/06/06 11:08:53;;;;;;;4.60;2.63;;;23.30;58.00;;;;;;5067526;28;20411;-69
2023/06/06 11:11:26;;;;;;;4.10;1.53;;;23.10;57.50;;;;;;5053476;28;20760;-68
2023/06/06 11:14:01;;;;;;;2.27;1.23;;;23.40;58.10;;;;;;5052256;28;20535;-68
2023/06/06 11:16:46;;;;;;;6.10;1.70;;;23.60;57.60;;;;;;5053364;28;20415;-69
2023/06/06 11:19:18;;;;;;;7.63;2.30;;;24.00;53.80;;;;;;5061680;28;20490;-69
2023/06/06 11:21:45;;;;;;;3.00;1.37;;;24.20;56.00;;;;;;5067334;28;21222;-69
2023/06/06 11:24:12;;;;;;;7.50;2.17;;;24.40;53.80;;;;;;5062283;28;20431;-69
2023/06/06 11:26:40;;;;;;;2.83;1.70;;;23.90;57.00;;;;;;5051289;28;20428;-68
2023/06/06 11:29:10;;;;;;;5.57;2.20;;;23.90;55.70;;;;;;5053394;28;20766;-67
2023/06/06 11:31:37;;;;;;;3.30;1.70;;;23.40;55.10;;;;;;5070191;28;20823;-69
2023/06/06 11:34:11;;;;;;;3.40;1.80;;;23.20;55.70;;;;;;5052772;28;20533;-69
2023/06/06 11:36:38;;;;;;;3.67;1.90;;;23.30;56.00;;;;;;5053015;28;20906;-69
2023/06/06 11:39:07;;;;;;;5.93;2.07;;;23.40;55.80;;;;;;5061522;28;20415;-68
2023/06/06 11:41:39;;;;;;;3.20;1.80;;;24.00;55.20;;;;;;5053985;28;20474;-68
2023/06/06 11:44:05;;;;;;;2.50;1.47;;;24.30;52.80;;;;;;5067011;28;20484;-69
2023/06/06 11:46:45;;;;;;;2.77;1.70;;;24.60;51.30;;;;;;5063929;28;20736;-69
2023/06/06 11:49:11;;;;;;;5.77;2.13;;;24.60;54.50;;;;;;5052076;28;20200;-69
2023/06/06 11:51:37;;;;;;;5.00;2.13;;;24.70;55.10;;;;;;5056251;28;20447;-69
2023/06/06 11:54:19;;;;;;;3.10;1.50;;;25.10;54.80;;;;;;5065925;28;20213;-69
2023/06/06 11:56:46;;;;;;;6.80;1.63;;;25.10;55.10;;;;;;5064027;28;20667;-69
2023/06/06 11:59:12;;;;;;;4.53;2.00;;;24.30;55.60;;;;;;5065362;28;20497;-70
2023/06/06 12:01:56;;;;;;;2.97;1.67;;;24.20;56.00;;;;;;5052858;28;20419;-71
2023/06/06 12:04:23;;;;;;;9.63;1.83;;;23.90;56.40;;;;;;5064382;28;20781;-71
2023/06/06 12:06:51;;;;;;;3.77;2.20;;;23.80;56.70;;;;;;5052055;28;20416;-70
2023/06/06 12:09:19;;;;;;;4.07;1.80;;;23.90;58.00;;;;;;5050116;28;20438;-70
2023/06/06 12:11:57;;;;;;;5.10;2.13;;;24.20;56.80;;;;;;5056636;28;20481;-70
2023/06/06 12:14:25;;;;;;;5.00;2.30;;;24.20;57.80;;;;;;5063444;28;20501;-71
2023/06/06 12:16:51;;;;;;;4.23;1.80;;;23.90;57.00;;;;;;5069656;28;20431;-70
2023/06/06 12:19:18;;;;;;;5.63;1.67;;;23.50;56.80;;;;;;5071772;28;20419;-71
2023/06/06 12:21:51;;;;;;;6.47;2.20;;;23.50;58.60;;;;;;5063488;28;20419;-71
2023/06/06 12:24:21;;;;;;;1.83;1.27;;;23.40;57.80;;;;;;5065456;28;20423;-71
2023/06/06 12:27:02;;;;;;;3.53;1.87;;;23.60;57.20;;;;;;5054904;28;20435;-71
2023/06/06 12:29:33;;;;;;;3.90;1.60;;;23.30;58.00;;;;;;5061410;28;20461;-71
2023/06/06 12:32:15;;;;;;;3.80;2.43;;;23.30;57.40;;;;;;5070267;28;20435;-71
2023/06/06 12:34:49;;;;;;;5.93;2.03;;;23.10;57.70;;;;;;5075228;28;20515;-71
2023/06/06 12:37:18;;;;;;;3.20;1.57;;;23.10;56.90;;;;;;5060204;28;20424;-71
2023/06/06 12:39:45;;;;;;;2.23;1.30;;;23.00;57.40;;;;;;5058158;28;20426;-71
2023/06/06 12:42:19;;;;;;;4.30;2.30;;;22.90;58.60;;;;;;5062009;28;20407;-71
2023/06/06 12:44:46;;;;;;;4.47;1.93;;;23.10;58.70;;;;;;5052720;28;20558;-71
2023/06/06 12:47:17;;;;;;;3.23;2.17;;;23.30;58.60;;;;;;5051460;28;20901;-71
2023/06/06 12:49:44;;;;;;;11.63;2.80;;;23.70;57.40;;;;;;5051114;28;20748;-71
2023/06/06 12:52:14;;;;;;;2.63;1.60;;;24.30;54.10;;;;;;5048110;28;20459;-71